^^
Meteo Knjazevac Station Historical Data
Daily Summary for April 19, 2021 Units:  English    Metric   Both
Daily Weekly Monthly Yearly Custom
  High: Low: Average:
Temperature: 42.4 °F 40.6 °F 41.2 °F
Dew Point: 41.9 °F 40.4 °F 41 °F
Humidity: 99% 98% 99%
Wind Speed: 5mph 0mph 0.8mph
Wind Gust: 10mph - -
Wind- - SSW
Pressure: 30.12 in 30.06 in -
Precipitation: 0.00 in    
Historical Graphs
 
 
Tabular Data for April 19, 2021
Time Temperature Dew Point Pressure Wind Wind Speed Wind Gust Humidity Rainfall Rate (Hourly) solar Conditions
00:00 41.7 °F 41.5 °F 30.12 in Calm   1 mph 99% 0.00 in 0 W/m2
00:10 41.7 °F 41.5 °F 30.12 in Calm   1 mph 99% 0.00 in 0 W/m2
00:20 41.5 °F 41.3 °F 30.12 in NE 1 mph 2 mph 99% 0.00 in 0 W/m2
00:30 41.5 °F 41.3 °F 30.12 in NE 1 mph 2 mph 99% 0.00 in 0 W/m2
00:40 41.5 °F 41.3 °F 30.11 in NNE 2 mph 3 mph 99% 0.00 in 0 W/m2
00:50 41.5 °F 41.2 °F 30.11 in North 1 mph 3 mph 99% 0.00 in 0 W/m2
01:00 41.5 °F 41.3 °F 30.12 in Calm   1 mph 99% 0.00 in 0 W/m2
01:10 41.5 °F 41.3 °F 30.11 in Calm   2 mph 99% 0.00 in 0 W/m2
01:20 41.5 °F 41.3 °F 30.11 in Calm   2 mph 99% 0.00 in 0 W/m2
01:30 41.7 °F 41.5 °F 30.10 in Calm     99% 0.00 in 0 W/m2
01:50 41.7 °F 41.5 °F 30.10 in Calm   2 mph 99% 0.00 in 0 W/m2
02:00 41.7 °F 41.5 °F 30.10 in North 1 mph 3 mph 99% 0.00 in 0 W/m2
02:10 41.5 °F 41.3 °F 30.10 in Calm   3 mph 99% 0.00 in 0 W/m2
02:20 41.5 °F 41.3 °F 30.10 in NNW 1 mph 5 mph 99% 0.00 in 0 W/m2
02:30 41.4 °F 41.2 °F 30.10 in NNW 2 mph 5 mph 99% 0.00 in 0 W/m2
02:40 41.4 °F 41.1 °F 30.10 in North 2 mph 5 mph 99% 0.00 in 0 W/m2
02:50 41.4 °F 41.1 °F 30.09 in North 1 mph 5 mph 99% 0.00 in 0 W/m2
03:00 41.4 °F 41.1 °F 30.10 in NNE 1 mph 3 mph 99% 0.00 in 0 W/m2
03:10 41.2 °F 40.9 °F 30.09 in Calm   2 mph 99% 0.00 in 0 W/m2
03:20 41 °F 40.7 °F 30.09 in Calm   2 mph 99% 0.00 in 0 W/m2
03:30 40.8 °F 40.6 °F 30.09 in Calm   3 mph 99% 0.00 in 0 W/m2
03:40 40.8 °F 40.6 °F 30.10 in WSW 1 mph 2 mph 99% 0.00 in 0 W/m2
03:50 40.6 °F 40.4 °F 30.09 in NW 1 mph 3 mph 99% 0.00 in 0 W/m2
04:00 40.6 °F 40.4 °F 30.09 in Calm   2 mph 99% 0.00 in 0 W/m2
04:10 40.6 °F 40.4 °F 30.09 in Calm   2 mph 99% 0.00 in 0 W/m2
04:30 40.6 °F 40.4 °F 30.08 in Calm   2 mph 99% 0.00 in 0 W/m2
04:40 40.6 °F 40.4 °F 30.08 in North 1 mph 4 mph 99% 0.00 in 0 W/m2
04:50 40.6 °F 40.4 °F 30.08 in Calm   2 mph 99% 0.00 in 0 W/m2
05:00 40.6 °F 40.4 °F 30.08 in Calm   1 mph 99% 0.00 in 0 W/m2
05:10 40.6 °F 40.4 °F 30.08 in Calm   2 mph 99% 0.00 in 0 W/m2
05:20 40.6 °F 40.4 °F 30.08 in Calm   2 mph 99% 0.00 in 0 W/m2
05:30 40.6 °F 40.4 °F 30.08 in Calm   1 mph 99% 0.00 in 0 W/m2
05:50 40.8 °F 40.6 °F 30.07 in North 1 mph 3 mph 99% 0.00 in 1 W/m2
06:00 40.8 °F 40.6 °F 30.07 in Calm   2 mph 99% 0.00 in 3 W/m2
06:20 41.2 °F 40.9 °F 30.08 in Calm   5 mph 99% 0.00 in 17 W/m2
06:30 41.2 °F 40.9 °F 30.08 in NNW 1 mph 5 mph 99% 0.00 in 32 W/m2
07:00 41.7 °F 41.5 °F 30.07 in North 3 mph 6 mph 99% 0.00 in 46 W/m2
07:20 41.9 °F 41.6 °F 30.07 in North 5 mph 10 mph 99% 0.00 in 95 W/m2
07:40 42.4 °F 41.9 °F 30.06 in North 5 mph 10 mph 98% 0.00 in 192 W/m2
Knjazevac, Serbia
Compliments of Weather Underground - 2 mb